Time;durP1;ratioP1;P1;durP2;ratioP2;P2;SDS_P1;SDS_P2;PMS_P1;PMS_P2;Temp;Humidity;BMP_temperature;BMP_pressure;BME280_temperature;BME280_humidity;BME280_pressure;Samples;Min_cycle;Max_cycle;Signal;HPM_P1;HPM_P2
2023/03/01 00:01:29;;;;;;;;;;;1.30;99.90;;;;;;5049668;28;1121;-68
2023/03/01 00:03:55;;;;;;;;;;;1.40;99.90;;;;;;5050186;28;1061;-68
2023/03/01 00:06:21;;;;;;;;;;;1.50;99.90;;;;;;5061936;28;1347;-68
2023/03/01 00:08:47;;;;;;;;;;;1.50;99.90;;;;;;5036061;28;1093;-68
2023/03/01 00:11:15;;;;;;;;;;;1.60;99.90;;;;;;5069429;28;1048;-68
2023/03/01 00:13:41;;;;;;;;;;;1.60;99.90;;;;;;5069317;28;1131;-68
2023/03/01 00:16:08;;;;;;;;;;;1.50;99.90;;;;;;5063922;28;1383;-68
2023/03/01 00:18:34;;;;;;;;;;;1.40;99.90;;;;;;5051681;28;1982;-68
2023/03/01 00:21:00;;;;;;;;;;;1.30;99.90;;;;;;5070115;28;1220;-68
2023/03/01 00:23:26;;;;;;;;;;;1.30;99.90;;;;;;5050468;28;1535;-68
2023/03/01 00:25:52;;;;;;;;;;;1.20;99.90;;;;;;5069445;28;1140;-68
2023/03/01 00:28:17;;;;;;;;;;;1.10;99.90;;;;;;5069633;28;1166;-68
2023/03/01 00:30:43;;;;;;;;;;;1.00;99.90;;;;;;5031598;28;1677;-68
2023/03/01 00:33:09;;;;;;;;;;;0.90;99.90;;;;;;5039311;28;1198;-68
2023/03/01 00:35:35;;;;;;;;;;;0.90;99.90;;;;;;5055546;28;1540;-68
2023/03/01 00:38:01;;;;;;;;;;;0.90;99.90;;;;;;5068570;28;1934;-69
2023/03/01 00:40:27;;;;;;;;;;;0.90;99.90;;;;;;5047043;28;1383;-68
2023/03/01 00:42:53;;;;;;;;;;;0.90;99.90;;;;;;5059973;28;1215;-68
2023/03/01 00:45:19;;;;;;;;;;;1.00;99.90;;;;;;5030982;28;1121;-68
2023/03/01 00:47:44;;;;;;;;;;;1.10;99.90;;;;;;5054497;28;1105;-68
2023/03/01 00:50:11;;;;;;;;;;;1.10;99.90;;;;;;5051424;28;1290;-68
2023/03/01 00:52:37;;;;;;;;;;;1.10;99.90;;;;;;5032587;28;1513;-68
2023/03/01 00:55:03;;;;;;;;;;;1.10;99.90;;;;;;5068946;28;1157;-69
2023/03/01 00:57:29;;;;;;;;;;;1.00;99.90;;;;;;5068801;28;1064;-68
2023/03/01 00:59:54;;;;;;;;;;;1.00;99.90;;;;;;5064791;28;1906;-68
2023/03/01 01:02:20;;;;;;;;;;;1.00;99.90;;;;;;5048831;28;1132;-68
2023/03/01 01:04:46;;;;;;;;;;;1.00;99.90;;;;;;5030590;28;1129;-68
2023/03/01 01:07:13;;;;;;;;;;;0.90;99.90;;;;;;5038944;28;1121;-68
2023/03/01 01:09:38;;;;;;;;;;;0.90;99.90;;;;;;5033385;28;1168;-68
2023/03/01 01:12:04;;;;;;;;;;;0.80;99.90;;;;;;5050299;28;1162;-68
2023/03/01 01:14:30;;;;;;;;;;;0.80;99.90;;;;;;5069444;28;1164;-68
2023/03/01 01:16:56;;;;;;;;;;;0.70;99.90;;;;;;5058656;28;1577;-68
2023/03/01 01:19:23;;;;;;;;;;;0.50;99.90;;;;;;5030420;28;1979;-68
2023/03/01 01:21:49;;;;;;;;;;;0.50;99.90;;;;;;5031223;28;951;-68
2023/03/01 01:24:15;;;;;;;;;;;0.50;99.90;;;;;;5048821;28;1002;-68
2023/03/01 01:26:41;;;;;;;;;;;0.20;99.90;;;;;;5048254;28;1164;-68
2023/03/01 01:29:06;;;;;;;;;;;0.20;99.90;;;;;;5034708;28;1085;-68
2023/03/01 01:31:33;;;;;;;;;;;0.40;99.90;;;;;;5048698;28;1085;-68
2023/03/01 01:34:00;;;;;;;;;;;0.00;99.90;;;;;;5041381;28;1100;-68
2023/03/01 01:36:25;;;;;;;;;;;0.00;99.90;;;;;;5067551;28;1277;-68
2023/03/01 01:38:51;;;;;;;;;;;0.00;99.90;;;;;;5038016;28;1964;-67
2023/03/01 01:41:17;;;;;;;;;;;-0.10;99.90;;;;;;5060720;28;1390;-68
2023/03/01 01:43:44;;;;;;;;;;;-0.10;99.90;;;;;;5052071;28;1063;-68
2023/03/01 01:46:30;;;;;;;;;;;0.20;99.90;;;;;;5035822;28;1172;-68
2023/03/01 01:48:58;;;;;;;;;;;-0.10;99.90;;;;;;5039257;28;1370;-68
2023/03/01 01:51:27;;;;;;;;;;;0.10;99.90;;;;;;5030691;28;1101;-68
2023/03/01 01:53:56;;;;;;;;;;;0.10;99.90;;;;;;5046425;28;1161;-68
2023/03/01 01:56:22;;;;;;;;;;;-0.10;99.90;;;;;;5048733;28;1108;-68
2023/03/01 01:58:49;;;;;;;;;;;-0.30;99.90;;;;;;5055357;28;1902;-68
2023/03/01 02:01:15;;;;;;;;;;;-0.40;99.90;;;;;;5053368;28;1138;-68
2023/03/01 02:03:42;;;;;;;;;;;-0.10;99.90;;;;;;5048748;28;1152;-68
2023/03/01 02:06:18;;;;;;;;;;;-0.40;99.90;;;;;;5048460;28;1105;-68
2023/03/01 02:08:45;;;;;;;;;;;-0.40;99.90;;;;;;5051476;28;1179;-68
2023/03/01 02:11:14;;;;;;;;;;;0.00;99.90;;;;;;5035192;28;1124;-67
2023/03/01 02:13:40;;;;;;;;;;;-0.20;99.90;;;;;;5030587;28;1022;-68
2023/03/01 02:16:10;;;;;;;;;;;-0.10;99.90;;;;;;5060139;28;1432;-68
2023/03/01 02:18:37;;;;;;;;;;;-0.30;99.90;;;;;;5039920;28;1910;-68
2023/03/01 02:21:03;;;;;;;;;;;-0.10;99.90;;;;;;5066435;28;1370;-67
2023/03/01 02:23:29;;;;;;;;;;;-0.20;99.90;;;;;;5051073;28;1172;-68
2023/03/01 02:25:58;;;;;;;;;;;0.10;99.90;;;;;;5051598;28;1300;-67
2023/03/01 02:28:26;;;;;;;;;;;-0.30;99.90;;;;;;5034232;28;1371;-68
2023/03/01 02:33:39;;;;;;;;;;;;;;;;;;5051880;28;1084;-68
2023/03/01 02:36:07;;;;;;;;;;;-0.80;99.90;;;;;;5055520;28;1115;-68
2023/03/01 02:38:33;;;;;;;;;;;-0.90;99.90;;;;;;5039872;28;2012;-67
2023/03/01 02:40:59;;;;;;;;;;;-1.00;99.90;;;;;;5053784;28;1227;-67
2023/03/01 02:43:27;;;;;;;;;;;-1.00;99.90;;;;;;5053291;28;1135;-67
2023/03/01 02:45:52;;;;;;;;;;;-1.00;99.90;;;;;;5052427;28;1335;-67
2023/03/01 02:48:20;;;;;;;;;;;-1.00;99.90;;;;;;5046158;28;1926;-67
2023/03/01 02:50:55;;;;;;;;;;;-0.90;99.90;;;;;;5032947;28;1602;-67
2023/03/01 02:53:21;;;;;;;;;;;-1.00;99.90;;;;;;5021505;28;1103;-67
2023/03/01 02:55:47;;;;;;;;;;;-0.70;99.90;;;;;;5033676;28;1156;-67
2023/03/01 02:58:13;;;;;;;;;;;-0.90;99.90;;;;;;5034691;28;1906;-67
2023/03/01 03:00:45;;;;;;;;;;;-0.90;99.90;;;;;;5027862;28;1169;-67
2023/03/01 03:03:13;;;;;;;;;;;-0.90;99.90;;;;;;5045683;28;1121;-67
2023/03/01 03:05:39;;;;;;;;;;;-0.90;99.90;;;;;;5055796;28;1493;-67
2023/03/01 03:08:07;;;;;;;;;;;-0.90;99.90;;;;;;5033271;28;1129;-67
2023/03/01 03:10:37;;;;;;;;;;;-1.00;99.90;;;;;;5048042;28;1493;-67
2023/03/01 03:13:04;;;;;;;;;;;-1.00;99.90;;;;;;5035064;28;1140;-67
2023/03/01 03:15:30;;;;;;;;;;;-1.00;99.90;;;;;;5050833;28;1316;-67
2023/03/01 03:17:57;;;;;;;;;;;-1.00;99.90;;;;;;5033386;28;1160;-67
2023/03/01 03:20:24;;;;;;;;;;;-0.60;99.90;;;;;;5061051;28;1910;-67
2023/03/01 03:22:51;;;;;;;;;;;-0.90;99.90;;;;;;5053384;28;1367;-67
2023/03/01 03:25:17;;;;;;;;;;;-0.80;99.90;;;;;;5063013;28;1168;-67
2023/03/01 03:27:44;;;;;;;;;;;-0.90;99.90;;;;;;5069070;28;1370;-67
2023/03/01 03:30:12;;;;;;;;;;;-0.70;99.90;;;;;;5055242;28;1329;-67
2023/03/01 03:32:39;;;;;;;;;;;-0.90;99.90;;;;;;5049482;28;1016;-67
2023/03/01 03:35:09;;;;;;;;;;;-1.00;99.90;;;;;;5050891;28;1148;-67
2023/03/01 03:40:20;;;;;;;;;;;-1.00;99.90;;;;;;5063994;28;1976;-67
2023/03/01 03:42:46;;;;;;;;;;;-1.00;99.90;;;;;;5039401;28;1506;-67
2023/03/01 03:45:12;;;;;;;;;;;-1.00;99.90;;;;;;5050202;28;1171;-67
2023/03/01 03:47:37;;;;;;;;;;;-1.00;99.90;;;;;;5045936;28;1127;-67
2023/03/01 03:50:03;;;;;;;;;;;-1.00;99.90;;;;;;5033972;28;1516;-67
2023/03/01 03:52:29;;;;;;;;;;;-1.00;99.90;;;;;;5058110;28;1121;-67
2023/03/01 03:54:54;;;;;;;;;;;-1.00;99.90;;;;;;5067868;28;1186;-67
2023/03/01 03:57:21;;;;;;;;;;;-0.90;99.90;;;;;;5050218;28;1105;-67
2023/03/01 03:59:46;;;;;;;;;;;-1.00;99.90;;;;;;5058306;28;1954;-67
2023/03/01 04:02:12;;;;;;;;;;;-1.00;99.90;;;;;;5049595;28;1156;-67
2023/03/01 04:04:38;;;;;;;;;;;-1.00;99.90;;;;;;5059861;28;1114;-67
2023/03/01 04:07:03;;;;;;;;;;;-1.00;99.90;;;;;;5061597;28;1560;-67
2023/03/01 04:09:30;;;;;;;;;;;-0.80;99.90;;;;;;5049563;28;1132;-67
2023/03/01 04:11:55;;;;;;;;;;;-1.00;99.90;;;;;;5055339;28;1418;-67
2023/03/01 04:14:21;;;;;;;;;;;-1.00;99.90;;;;;;5054956;28;1233;-67
2023/03/01 04:16:47;;;;;;;;;;;-0.90;99.90;;;;;;5052860;28;1684;-67
2023/03/01 04:19:15;;;;;;;;;;;-1.10;99.90;;;;;;5055504;28;1999;-67
2023/03/01 04:21:40;;;;;;;;;;;-0.70;99.90;;;;;;5054192;28;1198;-67
2023/03/01 04:24:06;;;;;;;;;;;-1.10;99.90;;;;;;5054747;28;1099;-67
2023/03/01 04:26:32;;;;;;;;;;;-1.10;99.90;;;;;;5049957;28;1077;-67
2023/03/01 04:28:57;;;;;;;;;;;-1.20;99.90;;;;;;5048815;28;1317;-67
2023/03/01 04:31:23;;;;;;;;;;;-1.00;99.90;;;;;;5061579;28;1138;-67
2023/03/01 04:33:51;;;;;;;;;;;-1.30;99.90;;;;;;5069677;28;1100;-67
2023/03/01 04:36:18;;;;;;;;;;;-1.20;99.90;;;;;;5061460;28;1164;-67
2023/03/01 04:38:50;;;;;;;;;;;-1.30;99.90;;;;;;5050011;28;1999;-66
2023/03/01 04:41:17;;;;;;;;;;;-1.30;99.90;;;;;;5053218;28;1469;-67
2023/03/01 04:43:43;;;;;;;;;;;-1.30;99.90;;;;;;5047773;28;1104;-67
2023/03/01 04:46:11;;;;;;;;;;;-1.30;99.90;;;;;;5054297;28;1509;-67
2023/03/01 04:48:37;;;;;;;;;;;-1.30;99.90;;;;;;5068762;28;1619;-67
2023/03/01 04:51:03;;;;;;;;;;;-1.10;99.90;;;;;;5048704;28;1153;-67
2023/03/01 04:53:29;;;;;;;;;;;-1.20;99.90;;;;;;5063785;28;1552;-67
2023/03/01 04:55:55;;;;;;;;;;;-1.40;99.90;;;;;;5049142;28;1166;-67
2023/03/01 04:58:23;;;;;;;;;;;-1.50;99.90;;;;;;5061502;28;1926;-67
2023/03/01 05:00:48;;;;;;;;;;;-1.40;99.90;;;;;;5049032;28;1093;-67
2023/03/01 05:03:17;;;;;;;;;;;-1.40;99.90;;;;;;5054399;28;1363;-67
2023/03/01 05:05:44;;;;;;;;;;;-1.40;99.90;;;;;;5052027;28;1093;-67
2023/03/01 05:08:17;;;;;;;;;;;-1.50;99.90;;;;;;5068460;28;1110;-67
2023/03/01 05:10:44;;;;;;;;;;;-0.60;99.90;;;;;;5069032;28;1120;-67
2023/03/01 05:13:10;;;;;;;;;;;-1.60;99.90;;;;;;5068549;28;1183;-67
2023/03/01 05:15:36;;;;;;;;;;;-1.70;99.90;;;;;;5062253;28;1368;-67
2023/03/01 05:18:02;;;;;;;;;;;-1.80;99.90;;;;;;5049271;28;1513;-67
2023/03/01 05:20:28;;;;;;;;;;;-1.80;99.90;;;;;;5049006;28;1963;-67
2023/03/01 05:22:56;;;;;;;;;;;-1.90;99.90;;;;;;5048633;28;1117;-67
2023/03/01 05:25:22;;;;;;;;;;;-2.00;99.90;;;;;;5048147;28;1037;-67
2023/03/01 05:27:48;;;;;;;;;;;-2.10;99.90;;;;;;5049112;28;1084;-67
2023/03/01 05:30:14;;;;;;;;;;;-2.20;99.90;;;;;;5053017;28;1260;-67
2023/03/01 05:32:40;;;;;;;;;;;-2.30;99.90;;;;;;5050640;28;1077;-67
2023/03/01 05:35:06;;;;;;;;;;;-2.40;99.90;;;;;;5050732;28;1492;-67
2023/03/01 05:37:32;;;;;;;;;;;-2.60;99.90;;;;;;5031231;28;1097;-67
2023/03/01 05:39:57;;;;;;;;;;;-2.60;99.90;;;;;;5058417;28;1965;-67
2023/03/01 05:42:23;;;;;;;;;;;-2.60;99.90;;;;;;5054481;28;1313;-67
2023/03/01 05:44:49;;;;;;;;;;;-2.70;99.90;;;;;;5048426;28;1132;-67
2023/03/01 05:47:14;;;;;;;;;;;-2.80;99.90;;;;;;5060546;28;1089;-67
2023/03/01 05:49:40;;;;;;;;;;;-2.80;99.90;;;;;;5061562;28;1548;-67
2023/03/01 05:52:06;;;;;;;;;;;-2.80;99.90;;;;;;5049782;28;1221;-67
2023/03/01 05:54:31;;;;;;;;;;;-2.50;99.90;;;;;;5054229;28;1438;-67
2023/03/01 05:56:57;;;;;;;;;;;-2.90;99.90;;;;;;5054273;28;1140;-67
2023/03/01 05:59:23;;;;;;;;;;;-2.20;99.90;;;;;;5059702;28;1922;-67
2023/03/01 06:01:48;;;;;;;;;;;-3.00;99.90;;;;;;5053531;28;1154;-67
2023/03/01 06:04:14;;;;;;;;;;;-3.00;99.90;;;;;;5053597;28;1280;-67
2023/03/01 06:06:40;;;;;;;;;;;-2.60;99.90;;;;;;5052353;28;1032;-67
2023/03/01 06:09:07;;;;;;;;;;;-2.50;99.90;;;;;;5065468;28;1331;-67
2023/03/01 06:11:34;;;;;;;;;;;-2.90;99.90;;;;;;5054436;28;1135;-67
2023/03/01 06:14:00;;;;;;;;;;;-2.90;99.90;;;;;;5034219;28;1160;-67
2023/03/01 06:16:25;;;;;;;;;;;-2.10;99.90;;;;;;5063183;28;1358;-67
2023/03/01 06:18:51;;;;;;;;;;;-2.80;99.90;;;;;;5060986;28;1906;-67
2023/03/01 06:21:17;;;;;;;;;;;-2.70;99.90;;;;;;5050936;28;1085;-67
2023/03/01 06:23:42;;;;;;;;;;;-2.80;99.90;;;;;;5051802;28;1184;-67
2023/03/01 06:26:08;;;;;;;;;;;-2.70;99.90;;;;;;5058836;28;1370;-67
2023/03/01 06:28:34;;;;;;;;;;;-2.50;99.90;;;;;;5033120;28;1395;-67
2023/03/01 06:31:00;;;;;;;;;;;-3.00;99.90;;;;;;5042332;28;1418;-67
2023/03/01 06:33:25;;;;;;;;;;;-3.00;99.90;;;;;;5052059;28;1117;-67
2023/03/01 06:35:53;;;;;;;;;;;-3.10;99.90;;;;;;5063940;28;1154;-67
2023/03/01 06:38:19;;;;;;;;;;;-3.10;99.90;;;;;;5051732;28;1988;-67
2023/03/01 06:40:50;;;;;;;;;;;-3.10;99.90;;;;;;5069876;28;1290;-67
2023/03/01 06:43:16;;;;;;;;;;;-3.10;99.90;;;;;;5070205;28;1084;-67
2023/03/01 06:45:42;;;;;;;;;;;-3.10;99.90;;;;;;5052693;28;1671;-67
2023/03/01 06:48:08;;;;;;;;;;;-3.10;99.90;;;;;;5040220;28;1312;-67
2023/03/01 06:50:34;;;;;;;;;;;-3.00;99.90;;;;;;5032416;28;1285;-67
2023/03/01 06:53:00;;;;;;;;;;;-3.00;99.90;;;;;;5064313;28;1153;-67
2023/03/01 06:55:26;;;;;;;;;;;-3.00;99.90;;;;;;5053417;28;1077;-67
2023/03/01 06:57:56;;;;;;;;;;;-2.60;99.90;;;;;;5056413;28;1569;-67
2023/03/01 07:00:21;;;;;;;;;;;-2.80;99.90;;;;;;5064712;28;1906;-67
2023/03/01 07:02:47;;;;;;;;;;;-2.70;99.90;;;;;;5057857;28;1159;-67
2023/03/01 07:05:13;;;;;;;;;;;-2.60;99.90;;;;;;5049993;28;1112;-67
2023/03/01 07:07:38;;;;;;;;;;;-2.40;99.90;;;;;;5049967;28;1120;-67
2023/03/01 07:10:05;;;;;;;;;;;-2.30;99.90;;;;;;5052139;28;1099;-67
2023/03/01 07:12:30;;;;;;;;;;;-2.00;99.90;;;;;;5050086;28;1072;-67
2023/03/01 07:14:56;;;;;;;;;;;-1.80;99.90;;;;;;5049650;28;1910;-67
2023/03/01 07:17:22;;;;;;;;;;;-1.70;99.90;;;;;;5050901;28;1649;-67
2023/03/01 07:19:47;;;;;;;;;;;-1.50;99.90;;;;;;5058093;28;1898;-67
2023/03/01 07:22:13;;;;;;;;;;;-1.30;99.90;;;;;;5051153;28;1140;-67
2023/03/01 07:24:39;;;;;;;;;;;-1.00;99.90;;;;;;5050274;28;1101;-67
2023/03/01 07:27:04;;;;;;;;;;;-1.00;99.90;;;;;;5052409;28;1089;-67
2023/03/01 07:29:30;;;;;;;;;;;-0.90;99.90;;;;;;5061680;28;1327;-67
2023/03/01 07:31:56;;;;;;;;;;;-0.80;99.90;;;;;;5042286;28;1302;-67
2023/03/01 07:34:21;;;;;;;;;;;-0.60;99.90;;;;;;5058400;28;1117;-67
2023/03/01 07:36:47;;;;;;;;;;;-0.40;99.90;;;;;;5070018;28;1191;-67
2023/03/01 07:39:13;;;;;;;;;;;-0.30;99.90;;;;;;5056391;28;1910;-67
2023/03/01 07:41:39;;;;;;;;;;;-0.20;99.90;;;;;;5057780;28;990;-67
2023/03/01 07:44:04;;;;;;;;;;;-0.20;99.90;;;;;;5050740;28;1096;-67
2023/03/01 07:46:30;;;;;;;;;;;0.00;99.90;;;;;;5063763;28;1127;-67
2023/03/01 07:48:57;;;;;;;;;;;0.00;99.90;;;;;;5056390;28;1268;-67
2023/03/01 07:51:23;;;;;;;;;;;0.10;99.90;;;;;;5059608;28;1256;-67
2023/03/01 07:53:49;;;;;;;;;;;0.20;99.90;;;;;;5057811;28;1158;-67
2023/03/01 07:56:17;;;;;;;;;;;0.30;99.90;;;;;;5061150;28;1306;-67
2023/03/01 07:58:43;;;;;;;;;;;0.40;99.90;;;;;;5060823;28;1914;-67
2023/03/01 08:01:10;;;;;;;;;;;0.60;99.90;;;;;;5041948;28;1227;-67
2023/03/01 08:03:37;;;;;;;;;;;0.70;99.90;;;;;;5057484;28;1196;-67
2023/03/01 08:06:03;;;;;;;;;;;0.80;99.90;;;;;;5060288;28;1341;-67
2023/03/01 08:08:29;;;;;;;;;;;0.90;99.90;;;;;;5060171;28;1208;-67
2023/03/01 08:10:57;;;;;;;;;;;0.80;99.90;;;;;;5062562;28;1231;-67
2023/03/01 08:13:22;;;;;;;;;;;0.80;99.90;;;;;;5068094;28;1147;-67
2023/03/01 08:15:49;;;;;;;;;;;0.80;99.90;;;;;;5063682;28;3265;-67
2023/03/01 08:18:15;;;;;;;;;;;0.90;99.90;;;;;;5060151;28;3494;-67
2023/03/01 08:20:41;;;;;;;;;;;1.00;99.90;;;;;;5056679;28;1415;-67
2023/03/01 08:23:06;;;;;;;;;;;1.20;99.90;;;;;;5062157;28;3415;-67
2023/03/01 08:25:32;;;;;;;;;;;1.40;99.90;;;;;;5066739;28;1189;-67
2023/03/01 08:27:58;;;;;;;;;;;1.70;99.90;;;;;;5068166;28;1068;-67
2023/03/01 08:30:23;;;;;;;;;;;1.90;99.90;;;;;;5068693;28;1597;-67
2023/03/01 08:32:50;;;;;;;;;;;2.30;99.90;;;;;;5049189;28;1136;-67
2023/03/01 08:35:16;;;;;;;;;;;2.60;99.90;;;;;;5038519;28;3556;-67
2023/03/01 08:37:42;;;;;;;;;;;2.50;99.90;;;;;;5062669;28;1112;-67
2023/03/01 08:40:09;;;;;;;;;;;2.60;99.90;;;;;;5066217;28;1903;-67
2023/03/01 08:42:38;;;;;;;;;;;2.80;99.90;;;;;;5068444;28;1136;-67
2023/03/01 08:45:04;;;;;;;;;;;2.90;99.90;;;;;;5060949;28;1108;-67
2023/03/01 08:47:29;;;;;;;;;;;2.90;99.90;;;;;;5054596;28;1155;-67
2023/03/01 08:49:55;;;;;;;;;;;3.00;99.90;;;;;;5056840;28;1288;-67
2023/03/01 08:52:21;;;;;;;;;;;3.10;99.90;;;;;;5049316;28;1148;-67
2023/03/01 08:54:47;;;;;;;;;;;3.30;99.90;;;;;;5049414;28;1163;-67
2023/03/01 08:57:13;;;;;;;;;;;3.40;99.90;;;;;;5041362;28;1123;-67
2023/03/01 08:59:40;;;;;;;;;;;;;;;;;;5062152;28;1992;-67
2023/03/01 09:02:11;;;;;;;;;;;3.50;99.90;;;;;;5049242;28;1101;-67
2023/03/01 09:04:36;;;;;;;;;;;3.60;99.90;;;;;;5050037;28;1032;-67
2023/03/01 09:07:02;;;;;;;;;;;3.70;99.90;;;;;;5058742;28;1247;-67
2023/03/01 09:09:28;;;;;;;;;;;3.80;99.90;;;;;;5040335;28;1080;-67
2023/03/01 09:11:53;;;;;;;;;;;4.00;99.90;;;;;;5050645;28;1057;-67
2023/03/01 09:14:19;;;;;;;;;;;4.20;99.90;;;;;;5061214;28;1124;-67
2023/03/01 09:16:45;;;;;;;;;;;4.30;99.90;;;;;;5035606;28;1273;-67
2023/03/01 09:19:11;;;;;;;;;;;4.40;99.90;;;;;;5029985;28;1934;-67
2023/03/01 09:21:37;;;;;;;;;;;4.60;99.90;;;;;;5049108;28;1093;-67
2023/03/01 09:24:02;;;;;;;;;;;4.80;99.90;;;;;;5051284;28;1178;-67
2023/03/01 09:26:28;;;;;;;;;;;5.00;99.90;;;;;;5048831;28;1048;-67
2023/03/01 09:28:55;;;;;;;;;;;5.20;99.90;;;;;;5057296;28;1288;-67
2023/03/01 09:31:21;;;;;;;;;;;5.40;99.90;;;;;;5070162;28;1168;-67
2023/03/01 09:33:48;;;;;;;;;;;5.50;99.90;;;;;;5063548;28;1194;-67
2023/03/01 09:36:15;;;;;;;;;;;5.70;99.90;;;;;;5043743;28;1244;-67
2023/03/01 09:41:17;;;;;;;;;;;5.90;99.90;;;;;;5060884;28;1446;-67
2023/03/01 09:43:46;;;;;;;;;;;6.00;99.90;;;;;;5052561;28;1168;-68
2023/03/01 09:46:16;;;;;;;;;;;6.10;99.90;;;;;;5057649;28;1069;-68
2023/03/01 09:48:49;;;;;;;;;;;6.10;99.90;;;;;;5059866;28;1350;-68
2023/03/01 09:51:19;;;;;;;;;;;6.00;99.90;;;;;;5043828;28;1104;-68
2023/03/01 09:53:44;;;;;;;;;;;6.10;99.90;;;;;;5050550;28;1127;-68
2023/03/01 09:56:21;;;;;;;;;;;6.20;99.90;;;;;;5035799;28;1506;-68
2023/03/01 09:58:46;;;;;;;;;;;6.20;99.90;;;;;;5065560;28;1898;-68
2023/03/01 10:01:23;;;;;;;;;;;6.30;99.90;;;;;;5052015;28;1184;-68
2023/03/01 10:04:06;;;;;;;;;;;6.50;99.90;;;;;;5068833;28;1643;-68
2023/03/01 10:06:32;;;;;;;;;;;6.70;99.90;;;;;;5068180;28;1187;-68
2023/03/01 10:09:00;;;;;;;;;;;6.90;99.90;;;;;;5064529;28;1553;-68
2023/03/01 10:11:30;;;;;;;;;;;7.20;99.90;;;;;;5055609;28;1105;-68
2023/03/01 10:14:14;;;;;;;;;;;7.60;99.90;;;;;;5051547;28;1198;-68
2023/03/01 10:16:48;;;;;;;;;;;8.00;99.90;;;;;;5045818;28;3441;-68
2023/03/01 10:19:20;;;;;;;;;;;8.70;99.90;;;;;;5070930;28;1984;-68
2023/03/01 10:21:46;;;;;;;;;;;9.40;99.90;;;;;;5057826;28;3407;-68
2023/03/01 10:24:13;;;;;;;;;;;10.20;99.90;;;;;;5033690;28;1081;-68
2023/03/01 10:26:39;;;;;;;;;;;11.10;99.90;;;;;;5059494;28;1142;-68
2023/03/01 10:29:07;;;;;;;;;;;11.80;99.90;;;;;;5055777;28;1388;-68
2023/03/01 10:31:42;;;;;;;;;;;12.60;99.40;;;;;;5036488;28;1109;-68
2023/03/01 10:34:10;;;;;;;;;;;13.20;95.60;;;;;;5059004;28;1204;-68
2023/03/01 10:36:38;;;;;;;;;;;13.70;91.50;;;;;;5047434;28;1236;-68
2023/03/01 10:39:10;;;;;;;;;;;14.00;89.40;;;;;;5044938;28;1922;-68
2023/03/01 10:41:40;;;;;;;;;;;14.50;89.40;;;;;;5053083;28;1104;-68
2023/03/01 10:44:11;;;;;;;;;;;15.20;85.50;;;;;;5049329;28;3602;-68
2023/03/01 10:46:37;;;;;;;;;;;15.70;84.80;;;;;;5076758;28;3683;-68
2023/03/01 10:49:14;;;;;;;;;;;16.20;81.30;;;;;;5052620;28;3210;-68
2023/03/01 10:51:40;;;;;;;;;;;16.80;80.20;;;;;;5060483;28;1436;-68
2023/03/01 10:54:15;;;;;;;;;;;17.30;76.70;;;;;;5041865;28;987;-68
2023/03/01 10:56:47;;;;;;;;;;;17.60;73.50;;;;;;5069210;28;1717;-68
2023/03/01 10:59:21;;;;;;;;;;;18.00;74.30;;;;;;5064314;28;1910;-68
2023/03/01 11:02:00;;;;;;;;;;;18.40;72.30;;;;;;5061016;28;2647;-69
2023/03/01 11:04:26;;;;;;;;;;;18.60;69.10;;;;;;5064823;28;1239;-68
2023/03/01 11:06:57;;;;;;;;;;;18.90;70.70;;;;;;5047214;28;1346;-68
2023/03/01 11:09:24;;;;;;;;;;;19.40;70.60;;;;;;5052721;28;1157;-68
2023/03/01 11:11:54;;;;;;;;;;;19.90;67.00;;;;;;5061827;28;1190;-68
2023/03/01 11:14:21;;;;;;;;;;;20.30;66.70;;;;;;5036042;28;1092;-68
2023/03/01 11:16:48;;;;;;;;;;;20.60;64.70;;;;;;5055003;28;1577;-68
2023/03/01 11:19:16;;;;;;;;;;;20.90;62.00;;;;;;5056130;28;1906;-68
2023/03/01 11:21:56;;;;;;;;;;;21.20;60.30;;;;;;5059002;28;1387;-68
2023/03/01 11:24:31;;;;;;;;;;;21.40;58.70;;;;;;5060569;28;1227;-68
2023/03/01 11:27:00;;;;;;;;;;;21.30;57.00;;;;;;5057899;28;1196;-68
2023/03/01 11:29:27;;;;;;;;;;;21.20;59.40;;;;;;5040826;28;1222;-68
2023/03/01 11:31:55;;;;;;;;;;;21.50;54.70;;;;;;5058752;28;1204;-68
2023/03/01 11:34:31;;;;;;;;;;;21.20;54.60;;;;;;5060667;28;1191;-68
2023/03/01 11:36:59;;;;;;;;;;;21.00;54.00;;;;;;5057524;28;1155;-68
2023/03/01 11:39:45;;;;;;;;;;;20.90;54.70;;;;;;5069638;28;1921;-68
2023/03/01 11:42:15;;;;;;;;;;;20.90;53.60;;;;;;5070326;28;1340;-68
2023/03/01 11:44:42;;;;;;;;;;;21.30;54.50;;;;;;5069722;28;1170;-68
2023/03/01 11:47:19;;;;;;;;;;;21.80;54.20;;;;;;5058832;28;1236;-68
2023/03/01 11:49:57;;;;;;;;;;;22.40;52.70;;;;;;5057535;28;1383;-69
2023/03/01 11:52:30;;;;;;;;;;;22.90;51.50;;;;;;5049400;28;1093;-68
2023/03/01 11:55:05;;;;;;;;;;;23.30;52.40;;;;;;5057691;28;1220;-68
2023/03/01 11:57:53;;;;;;;;;;;23.80;60.50;;;;;;5050425;28;1148;-68
2023/03/01 12:00:25;;;;;;;;;;;24.20;49.40;;;;;;5049056;28;1914;-68
2023/03/01 12:03:14;;;;;;;;;;;24.20;45.90;;;;;;5052608;28;1144;-68
2023/03/01 12:05:48;;;;;;;;;;;24.00;46.80;;;;;;5050197;28;1094;-68
2023/03/01 12:08:22;;;;;;;;;;;24.00;44.80;;;;;;5031829;28;1160;-68
2023/03/01 12:10:49;;;;;;;;;;;23.60;45.50;;;;;;5050035;28;1102;-68
2023/03/01 12:13:16;;;;;;;;;;;23.20;46.20;;;;;;5040614;28;1105;-68
2023/03/01 12:15:43;;;;;;;;;;;23.20;45.90;;;;;;5034050;28;1148;-68
2023/03/01 12:18:13;;;;;;;;;;;23.20;46.30;;;;;;5049892;28;3728;-68
2023/03/01 12:20:50;;;;;;;;;;;23.30;46.40;;;;;;5058010;28;1906;-68
2023/03/01 12:23:34;;;;;;;;;;;23.30;47.20;;;;;;5051335;28;3949;-68
2023/03/01 12:26:07;;;;;;;;;;;23.70;47.50;;;;;;5057763;28;1243;-68
2023/03/01 12:28:39;;;;;;;;;;;24.10;46.70;;;;;;5036725;28;1272;-68
2023/03/01 12:31:25;;;;;;;;;;;24.60;47.10;;;;;;5058939;28;1200;-68
2023/03/01 12:33:51;;;;;;;;;;;;;;;;;;5059217;28;1184;-68
2023/03/01 12:36:19;;;;;;;;;;;25.10;75.50;;;;;;5058333;28;1199;-68
2023/03/01 12:38:48;;;;;;;;;;;25.60;63.90;;;;;;5056763;28;1967;-68
2023/03/01 12:41:24;;;;;;;;;;;25.70;44.60;;;;;;5059423;28;1092;-68
2023/03/01 12:43:58;;;;;;;;;;;26.00;44.00;;;;;;5051264;28;1065;-68
2023/03/01 12:46:42;;;;;;;;;;;26.30;44.20;;;;;;5061650;28;1196;-68
2023/03/01 12:49:10;;;;;;;;;;;26.50;43.50;;;;;;5058112;28;1395;-68
2023/03/01 12:51:37;;;;;;;;;;;26.70;44.00;;;;;;5057200;28;1251;-68
2023/03/01 12:54:15;;;;;;;;;;;26.80;43.40;;;;;;5031470;28;998;-68
2023/03/01 12:56:41;;;;;;;;;;;26.90;43.00;;;;;;5038441;28;1093;-68
2023/03/01 12:59:15;;;;;;;;;;;27.00;42.70;;;;;;5068732;28;1910;-69
2023/03/01 13:01:40;;;;;;;;;;;27.10;41.50;;;;;;5051525;28;1112;-68
2023/03/01 13:04:07;;;;;;;;;;;27.10;42.10;;;;;;5048202;28;1171;-68
2023/03/01 13:06:44;;;;;;;;;;;27.10;42.10;;;;;;5061153;28;1132;-68
2023/03/01 13:09:19;;;;;;;;;;;27.20;41.70;;;;;;5048266;28;1076;-68
2023/03/01 13:11:44;;;;;;;;;;;27.30;42.00;;;;;;5055715;28;982;-68
2023/03/01 13:14:23;;;;;;;;;;;27.40;42.10;;;;;;5067579;28;1116;-69
2023/03/01 13:16:49;;;;;;;;;;;27.40;41.80;;;;;;5058909;28;3724;-69
2023/03/01 13:19:16;;;;;;;;;;;27.50;41.80;;;;;;5055984;28;3685;-69
2023/03/01 13:21:43;;;;;;;;;;;27.40;41.70;;;;;;5054462;28;1481;-69
2023/03/01 13:24:28;;;;;;;;;;;27.40;42.00;;;;;;5061706;28;3948;-69
2023/03/01 13:27:06;;;;;;;;;;;27.50;41.90;;;;;;5048963;28;1187;-69
2023/03/01 13:29:44;;;;;;;;;;;27.40;42.00;;;;;;5031756;28;1453;-69
2023/03/01 13:32:20;;;;;;;;;;;27.50;42.00;;;;;;5047802;28;1140;-69
2023/03/01 13:34:48;;;;;;;;;;;27.50;41.90;;;;;;5052648;28;3642;-69
2023/03/01 13:37:25;;;;;;;;;;;27.60;41.20;;;;;;5051176;28;1132;-69
2023/03/01 13:39:52;;;;;;;;;;;27.70;41.20;;;;;;5059577;28;1906;-69
2023/03/01 13:42:32;;;;;;;;;;;27.80;41.70;;;;;;5049769;28;1143;-69
2023/03/01 13:44:58;;;;;;;;;;;27.80;40.20;;;;;;5049726;28;1038;-69
2023/03/01 13:47:24;;;;;;;;;;;27.10;40.60;;;;;;5071953;28;1120;-69
2023/03/01 13:49:57;;;;;;;;;;;26.70;41.90;;;;;;5035762;28;1336;-69
2023/03/01 13:52:35;;;;;;;;;;;26.50;42.40;;;;;;5037060;28;1124;-69
2023/03/01 13:55:03;;;;;;;;;;;26.70;42.50;;;;;;5068681;28;1155;-69
2023/03/01 13:57:32;;;;;;;;;;;27.00;42.00;;;;;;5068507;28;1152;-69
2023/03/01 13:59:58;;;;;;;;;;;27.10;42.60;;;;;;5033388;28;1906;-69
2023/03/01 14:02:23;;;;;;;;;;;27.20;42.10;;;;;;5030732;28;1633;-69
2023/03/01 14:04:56;;;;;;;;;;;27.30;42.20;;;;;;5060337;28;1398;-69
2023/03/01 14:07:24;;;;;;;;;;;27.40;41.40;;;;;;5054002;28;1443;-69
2023/03/01 14:09:58;;;;;;;;;;;27.50;41.90;;;;;;5053481;28;1226;-69
2023/03/01 14:12:30;;;;;;;;;;;27.50;41.90;;;;;;5047436;28;1129;-70
2023/03/01 14:14:56;;;;;;;;;;;27.50;42.00;;;;;;5048440;28;1105;-69
2023/03/01 14:17:23;;;;;;;;;;;27.60;41.50;;;;;;5055937;28;1609;-69
2023/03/01 14:19:57;;;;;;;;;;;27.60;41.50;;;;;;5051178;28;1910;-69
2023/03/01 14:22:27;;;;;;;;;;;27.50;41.50;;;;;;5064670;28;1176;-69
2023/03/01 14:24:55;;;;;;;;;;;27.30;41.30;;;;;;5039439;28;1052;-69
2023/03/01 14:27:21;;;;;;;;;;;27.10;40.70;;;;;;5057103;28;1117;-69
2023/03/01 14:29:56;;;;;;;;;;;27.00;41.80;;;;;;5033895;28;1617;-69
2023/03/01 14:32:25;;;;;;;;;;;27.10;42.00;;;;;;5051881;28;1113;-69
2023/03/01 14:34:51;;;;;;;;;;;26.90;40.80;;;;;;5065640;28;984;-69
2023/03/01 14:37:29;;;;;;;;;;;26.70;41.40;;;;;;5071747;28;1104;-69
2023/03/01 14:39:55;;;;;;;;;;;26.50;42.10;;;;;;5050111;28;1972;-69
2023/03/01 14:42:23;;;;;;;;;;;26.30;42.40;;;;;;5054532;28;1073;-69
2023/03/01 14:44:51;;;;;;;;;;;26.20;41.40;;;;;;5042466;28;1088;-69
2023/03/01 14:47:25;;;;;;;;;;;26.10;42.10;;;;;;5064344;28;1109;-69
2023/03/01 14:49:53;;;;;;;;;;;26.10;42.70;;;;;;5032232;28;1325;-70